createdAt,value
2022-08-14T00:02:24.522Z,19.41
2022-08-14T00:04:55.465Z,19.40
2022-08-14T00:07:22.941Z,19.40
2022-08-14T00:09:56.299Z,19.38
2022-08-14T00:12:53.354Z,19.36
2022-08-14T00:15:43.784Z,19.32
2022-08-14T00:18:31.006Z,19.30
2022-08-14T00:21:03.589Z,19.29
2022-08-14T00:23:31.026Z,19.29
2022-08-14T00:26:06.792Z,19.24
2022-08-14T00:28:40.748Z,19.23
2022-08-14T00:31:09.875Z,19.22
2022-08-14T00:33:51.683Z,19.17
2022-08-14T00:36:39.496Z,19.10
2022-08-14T00:39:18.026Z,19.02
2022-08-14T00:41:47.893Z,18.93
2022-08-14T00:44:27.594Z,18.95
2022-08-14T00:47:10.751Z,18.89
2022-08-14T00:49:43.408Z,18.87
2022-08-14T00:52:18.072Z,18.86
2022-08-14T00:54:50.564Z,18.88
2022-08-14T00:57:19.790Z,18.88
2022-08-14T00:59:48.524Z,18.93
2022-08-14T01:02:24.628Z,18.92
2022-08-14T01:04:58.408Z,18.88
2022-08-14T01:07:28.563Z,18.85
2022-08-14T01:10:06.674Z,18.87
2022-08-14T01:12:34.172Z,18.88
2022-08-14T01:15:09.780Z,18.87
2022-08-14T01:18:01.438Z,18.84
2022-08-14T01:20:48.361Z,18.81
2022-08-14T01:23:18.784Z,18.74
2022-08-14T01:25:51.494Z,18.69
2022-08-14T01:28:34.235Z,18.60
2022-08-14T01:31:15.531Z,18.58
2022-08-14T01:35:15.854Z,18.56
2022-08-14T01:36:37.030Z,18.52
2022-08-14T01:39:12.560Z,18.47
2022-08-14T01:41:43.911Z,18.40
2022-08-14T01:44:32.044Z,18.34
2022-08-14T01:47:16.481Z,18.30
2022-08-14T01:49:59.725Z,18.26
2022-08-14T01:52:59.954Z,18.15
2022-08-14T01:55:32.220Z,18.15
2022-08-14T01:58:20.143Z,18.17
2022-08-14T02:00:55.359Z,18.17
2022-08-14T02:03:31.993Z,18.24
2022-08-14T02:06:31.855Z,18.26
2022-08-14T02:08:52.921Z,18.26
2022-08-14T02:11:25.055Z,18.27
2022-08-14T02:14:06.833Z,18.24
2022-08-14T02:16:45.008Z,18.17
2022-08-14T02:19:19.313Z,18.13
2022-08-14T02:21:54.626Z,18.15
2022-08-14T02:24:40.377Z,18.26
2022-08-14T02:28:24.614Z,18.23
2022-08-14T02:30:02.158Z,18.23
2022-08-14T02:32:35.874Z,18.18
2022-08-14T02:35:13.660Z,18.04
2022-08-14T02:37:48.085Z,17.92
2022-08-14T02:40:18.433Z,17.90
2022-08-14T02:42:54.780Z,17.88
2022-08-14T02:45:38.285Z,17.86
2022-08-14T02:49:04.921Z,17.88
2022-08-14T02:51:05.428Z,17.92
2022-08-14T02:53:33.738Z,17.93
2022-08-14T02:56:30.728Z,17.97
2022-08-14T02:58:55.743Z,17.92
2022-08-14T03:01:26.200Z,17.93
2022-08-14T03:03:59.315Z,17.91
2022-08-14T03:06:35.172Z,17.85
2022-08-14T03:09:15.177Z,17.84
2022-08-14T03:11:44.758Z,17.78
2022-08-14T03:14:15.427Z,17.72
2022-08-14T03:16:45.607Z,17.69
2022-08-14T03:19:19.690Z,17.71
2022-08-14T03:21:52.956Z,17.73
2022-08-14T03:24:23.268Z,17.76
2022-08-14T03:26:57.306Z,17.78
2022-08-14T03:29:26.408Z,17.78
2022-08-14T03:31:57.726Z,17.73
2022-08-14T03:34:47.439Z,17.71
2022-08-14T03:37:39.185Z,17.70
2022-08-14T03:40:01.297Z,17.62
2022-08-14T03:42:31.148Z,17.56
2022-08-14T03:45:25.467Z,17.60
2022-08-14T03:47:58.918Z,17.61
2022-08-14T03:50:31.297Z,17.56
2022-08-14T03:53:01.538Z,17.52
2022-08-14T03:55:30.386Z,17.51
2022-08-14T03:58:00.656Z,17.51
2022-08-14T04:00:42.973Z,17.50
2022-08-14T04:03:17.971Z,17.52
2022-08-14T04:05:48.406Z,17.52
2022-08-14T04:08:29.729Z,17.54
2022-08-14T04:11:03.006Z,17.60
2022-08-14T04:13:39.376Z,17.58
2022-08-14T04:16:15.163Z,17.57
2022-08-14T04:18:45.306Z,17.59
2022-08-14T04:21:16.141Z,17.62
2022-08-14T04:23:45.352Z,17.69
2022-08-14T04:26:26.969Z,17.75
2022-08-14T04:29:14.801Z,17.77
2022-08-14T04:32:58.631Z,17.79
2022-08-14T04:34:30.421Z,17.79
2022-08-14T04:37:21.885Z,17.87
2022-08-14T04:40:08.792Z,17.92
2022-08-14T04:42:56.894Z,17.86
2022-08-14T04:45:40.538Z,17.84
2022-08-14T04:48:13.177Z,17.95
2022-08-14T04:50:54.302Z,18.00
2022-08-14T04:53:26.542Z,18.08
2022-08-14T04:56:03.385Z,18.13
2022-08-14T04:58:35.586Z,18.16
2022-08-14T05:01:12.883Z,18.24
2022-08-14T05:03:47.346Z,18.27
2022-08-14T05:06:37.394Z,18.22
2022-08-14T05:09:02.706Z,18.29
2022-08-14T05:11:33.315Z,18.41
2022-08-14T05:14:16.815Z,18.48
2022-08-14T05:16:52.954Z,18.60
2022-08-14T05:19:26.990Z,18.74
2022-08-14T05:22:16.392Z,18.81
2022-08-14T05:24:49.565Z,18.86
2022-08-14T05:27:22.749Z,18.78
2022-08-14T05:29:56.967Z,18.83
2022-08-14T05:32:27.289Z,18.87
2022-08-14T05:34:58.631Z,18.96
2022-08-14T05:37:27.322Z,19.09
2022-08-14T05:39:56.047Z,19.20
2022-08-14T05:42:29.336Z,19.32
2022-08-14T05:44:59.973Z,19.34
2022-08-14T05:47:33.771Z,19.46
2022-08-14T05:50:17.498Z,19.49
2022-08-14T05:52:48.661Z,19.59
2022-08-14T05:55:17.025Z,19.87
2022-08-14T05:57:55.037Z,20.28
2022-08-14T06:00:39.137Z,20.77
2022-08-14T06:03:10.113Z,20.84
2022-08-14T06:05:39.066Z,20.93
2022-08-14T06:08:36.729Z,20.88
2022-08-14T06:11:04.234Z,20.79
2022-08-14T06:13:41.072Z,20.60
2022-08-14T06:16:17.830Z,20.65
2022-08-14T06:18:51.726Z,20.73
2022-08-14T06:21:21.445Z,20.82
2022-08-14T06:23:50.132Z,20.94
2022-08-14T06:26:20.720Z,21.05
2022-08-14T06:28:52.022Z,20.88
2022-08-14T06:31:22.906Z,21.04
2022-08-14T06:35:10.769Z,21.38
2022-08-14T06:36:39.315Z,21.69
2022-08-14T06:39:10.420Z,21.76
2022-08-14T06:41:58.094Z,21.90
2022-08-14T06:44:30.324Z,21.96
2022-08-14T06:47:01.985Z,22.00
2022-08-14T06:49:30.309Z,22.08
2022-08-14T06:51:58.187Z,22.04
2022-08-14T06:54:31.134Z,21.86
2022-08-14T06:56:59.584Z,21.80
2022-08-14T06:59:27.125Z,21.85
2022-08-14T07:02:17.641Z,21.86
2022-08-14T07:05:05.101Z,21.95
2022-08-14T07:07:41.312Z,21.90
2022-08-14T07:10:16.854Z,22.03
2022-08-14T07:13:00.733Z,21.98
2022-08-14T07:15:32.566Z,22.08
2022-08-14T07:18:02.391Z,22.17
2022-08-14T07:20:32.037Z,22.16
2022-08-14T07:23:19.841Z,22.13
2022-08-14T07:25:51.506Z,22.19
2022-08-14T07:28:28.771Z,22.14
2022-08-14T07:31:04.183Z,22.01
2022-08-14T07:33:45.448Z,22.07
2022-08-14T07:36:26.983Z,22.21
2022-08-14T07:39:00.334Z,22.36
2022-08-14T07:41:31.163Z,22.54
2022-08-14T07:44:28.986Z,22.82
2022-08-14T07:46:50.588Z,23.10
2022-08-14T07:49:20.176Z,23.29
2022-08-14T07:51:49.339Z,23.44
2022-08-14T07:54:23.376Z,23.69
2022-08-14T07:57:06.240Z,23.76
2022-08-14T07:59:43.683Z,23.90
2022-08-14T08:02:19.079Z,23.77
2022-08-14T08:04:54.259Z,23.79
2022-08-14T08:07:24.923Z,23.90
2022-08-14T08:09:59.525Z,24.00
2022-08-14T08:12:30.788Z,24.15
2022-08-14T08:15:03.102Z,24.27
2022-08-14T08:17:42.412Z,24.51
2022-08-14T08:20:20.025Z,24.76
2022-08-14T08:22:55.567Z,24.99
2022-08-14T08:25:25.134Z,25.14
2022-08-14T08:28:22.200Z,25.33
2022-08-14T08:31:00.123Z,25.37
2022-08-14T08:33:32.359Z,25.45
2022-08-14T08:36:08.416Z,25.71
2022-08-14T08:39:17.102Z,26.16
2022-08-14T08:41:43.544Z,26.98
2022-08-14T08:44:17.458Z,27.56
2022-08-14T08:47:05.298Z,27.51
2022-08-14T08:49:48.528Z,27.08
2022-08-14T08:52:31.171Z,26.73
2022-08-14T08:55:04.655Z,26.88
2022-08-14T08:57:39.076Z,27.43
2022-08-14T09:00:25.748Z,27.35
2022-08-14T09:03:03.272Z,27.55
2022-08-14T09:05:33.454Z,28.07
2022-08-14T09:08:34.668Z,28.60
2022-08-14T09:11:19.035Z,29.11
2022-08-14T09:13:53.750Z,28.94
2022-08-14T09:16:25.542Z,28.82
2022-08-14T09:18:55.196Z,28.73
2022-08-14T09:21:24.922Z,28.35
2022-08-14T09:24:30.183Z,28.20
2022-08-14T09:26:49.232Z,28.63
2022-08-14T09:29:23.223Z,28.71
2022-08-14T09:31:57.702Z,29.06
2022-08-14T09:34:47.478Z,29.73
2022-08-14T09:37:42.113Z,30.38
2022-08-14T09:40:47.823Z,30.76
2022-08-14T09:43:50.403Z,31.12
2022-08-14T09:46:21.303Z,31.20
2022-08-14T09:49:00.475Z,31.67
2022-08-14T09:51:32.613Z,32.20
2022-08-14T09:54:17.999Z,32.44
2022-08-14T09:56:57.140Z,31.78
2022-08-14T09:59:33.706Z,31.78
2022-08-14T10:02:07.061Z,31.52
2022-08-14T10:04:42.352Z,31.02
2022-08-14T10:07:13.489Z,30.59
2022-08-14T10:09:59.558Z,30.56
2022-08-14T10:12:54.838Z,30.62
2022-08-14T10:15:29.880Z,30.08
2022-08-14T10:18:17.300Z,30.39
2022-08-14T10:21:00.890Z,30.93
2022-08-14T10:23:43.448Z,31.46
2022-08-14T10:26:23.052Z,31.95
2022-08-14T10:29:20.192Z,32.60
2022-08-14T10:31:59.415Z,32.47
2022-08-14T10:34:36.516Z,31.97
2022-08-14T10:37:14.887Z,31.94
2022-08-14T10:40:05.748Z,31.73
2022-08-14T10:42:41.106Z,31.75
2022-08-14T10:45:25.689Z,31.23
2022-08-14T10:48:07.897Z,31.24
2022-08-14T10:50:45.666Z,30.85
2022-08-14T10:53:14.522Z,30.56
2022-08-14T10:55:45.342Z,30.58
2022-08-14T10:58:14.757Z,30.09
2022-08-14T11:00:56.701Z,30.59
2022-08-14T11:03:26.904Z,30.92
2022-08-14T11:06:22.396Z,31.22
2022-08-14T11:08:52.863Z,31.76
2022-08-14T11:11:22.892Z,31.96
2022-08-14T11:13:50.711Z,32.19
2022-08-14T11:16:19.572Z,32.12
2022-08-14T11:18:51.108Z,32.37
2022-08-14T11:21:22.960Z,32.79
2022-08-14T11:23:53.815Z,32.82
2022-08-14T11:26:27.957Z,32.87
2022-08-14T11:29:00.328Z,32.56
2022-08-14T11:31:38.741Z,32.12
2022-08-14T11:34:10.276Z,31.44
2022-08-14T11:37:09.336Z,30.99
2022-08-14T11:39:42.544Z,30.86
2022-08-14T11:42:56.484Z,30.79
2022-08-14T11:45:17.078Z,30.94
2022-08-14T11:48:13.428Z,31.14
2022-08-14T11:50:37.419Z,30.95
2022-08-14T11:53:08.806Z,30.68
2022-08-14T11:55:39.056Z,30.15
2022-08-14T11:58:10.572Z,29.94
2022-08-14T12:00:49.518Z,29.93
2022-08-14T12:03:27.319Z,29.75
2022-08-14T12:06:27.727Z,29.40
2022-08-14T12:09:00.106Z,29.10
2022-08-14T12:11:43.302Z,28.89
2022-08-14T12:14:13.547Z,28.67
2022-08-14T12:17:00.688Z,28.63
2022-08-14T12:19:33.486Z,28.50
2022-08-14T12:22:02.790Z,28.54
2022-08-14T12:24:35.829Z,28.53
2022-08-14T12:27:04.630Z,28.61
2022-08-14T12:29:35.000Z,28.70
2022-08-14T12:32:08.765Z,28.82
2022-08-14T12:34:37.437Z,28.87
2022-08-14T12:37:06.775Z,28.80
2022-08-14T12:39:39.509Z,28.82
2022-08-14T12:42:11.861Z,28.86
2022-08-14T12:44:59.848Z,28.83
2022-08-14T12:47:31.741Z,28.85
2022-08-14T12:50:00.570Z,28.92
2022-08-14T12:52:53.969Z,28.95
2022-08-14T12:55:32.575Z,28.99
2022-08-14T12:58:35.155Z,29.03
2022-08-14T13:01:16.988Z,29.06
2022-08-14T13:03:52.067Z,29.17
2022-08-14T13:06:23.169Z,29.29
2022-08-14T13:09:00.066Z,29.36
2022-08-14T13:11:36.955Z,29.49
2022-08-14T13:14:17.513Z,29.53
2022-08-14T13:16:50.385Z,29.46
2022-08-14T13:19:20.371Z,29.35
2022-08-14T13:22:05.907Z,29.36
2022-08-14T13:24:39.881Z,29.42
2022-08-14T13:27:09.776Z,29.65
2022-08-14T13:29:46.841Z,29.86
2022-08-14T13:32:16.139Z,29.89
2022-08-14T13:34:46.169Z,30.00
2022-08-14T13:37:17.378Z,29.95
2022-08-14T13:39:56.321Z,29.80
2022-08-14T13:42:30.647Z,29.68
2022-08-14T13:45:02.158Z,29.62
2022-08-14T13:47:32.448Z,29.76
2022-08-14T13:50:04.807Z,29.91
2022-08-14T13:52:55.030Z,30.02
2022-08-14T13:55:28.834Z,30.08
2022-08-14T13:58:03.250Z,30.08
2022-08-14T14:00:35.851Z,30.23
2022-08-14T14:03:08.638Z,30.23
2022-08-14T14:05:53.190Z,30.34
2022-08-14T14:08:45.775Z,30.50
2022-08-14T14:11:10.932Z,30.55
2022-08-14T14:13:44.673Z,30.55
2022-08-14T14:16:25.989Z,30.48
2022-08-14T14:19:09.901Z,30.28
2022-08-14T14:21:40.511Z,30.10
2022-08-14T14:24:11.801Z,29.86
2022-08-14T14:26:50.171Z,29.78
2022-08-14T14:29:24.024Z,29.80
2022-08-14T14:31:54.909Z,29.77
2022-08-14T14:34:29.277Z,29.63
2022-08-14T14:37:02.791Z,29.53
2022-08-14T14:39:38.214Z,29.54
2022-08-14T14:42:32.030Z,29.41
2022-08-14T14:45:14.461Z,29.35
2022-08-14T14:47:48.747Z,29.36
2022-08-14T14:50:17.586Z,29.46
2022-08-14T14:52:45.058Z,29.41
2022-08-14T14:55:13.669Z,29.43
2022-08-14T14:57:52.174Z,29.53
2022-08-14T15:00:22.630Z,29.64
2022-08-14T15:02:53.345Z,29.72
2022-08-14T15:05:28.530Z,29.55
2022-08-14T15:07:56.252Z,29.42
2022-08-14T15:10:26.719Z,29.34
2022-08-14T15:13:00.363Z,29.32
2022-08-14T15:15:33.334Z,29.25
2022-08-14T15:18:14.722Z,29.23
2022-08-14T15:20:57.493Z,29.09
2022-08-14T15:23:43.502Z,29.01
2022-08-14T15:26:23.944Z,28.91
2022-08-14T15:29:06.493Z,28.94
2022-08-14T15:31:36.134Z,29.13
2022-08-14T15:34:43.851Z,29.21
2022-08-14T15:36:59.247Z,29.26
2022-08-14T15:39:29.661Z,29.31
2022-08-14T15:42:02.875Z,29.30
2022-08-14T15:44:34.380Z,29.25
2022-08-14T15:47:08.838Z,29.19
2022-08-14T15:49:37.995Z,29.12
2022-08-14T15:52:07.930Z,29.10
2022-08-14T15:54:36.226Z,29.14
2022-08-14T15:57:08.990Z,29.19
2022-08-14T15:59:56.972Z,29.11
2022-08-14T16:02:27.943Z,29.00
2022-08-14T16:04:56.421Z,29.07
2022-08-14T16:07:27.150Z,29.17
2022-08-14T16:10:25.259Z,29.19
2022-08-14T16:12:46.610Z,29.19
2022-08-14T16:15:16.826Z,28.97
2022-08-14T16:17:46.570Z,29.16
2022-08-14T16:20:42.512Z,29.14
2022-08-14T16:23:10.761Z,28.97
2022-08-14T16:25:42.315Z,28.90
2022-08-14T16:28:10.975Z,28.82
2022-08-14T16:30:56.034Z,28.73
2022-08-14T16:33:27.919Z,28.68
2022-08-14T16:36:30.774Z,28.69
2022-08-14T16:39:05.217Z,28.70
2022-08-14T16:41:34.895Z,28.70
2022-08-14T16:44:13.737Z,28.69
2022-08-14T16:46:55.316Z,28.70
2022-08-14T16:49:35.255Z,28.70
2022-08-14T16:52:43.515Z,28.72
2022-08-14T16:55:06.699Z,28.78
2022-08-14T16:57:34.395Z,28.85
2022-08-14T17:00:07.036Z,28.90
2022-08-14T17:02:44.947Z,28.96
2022-08-14T17:05:24.788Z,28.98
2022-08-14T17:08:33.023Z,29.02
2022-08-14T17:10:51.774Z,29.04
2022-08-14T17:13:58.298Z,29.02
2022-08-14T17:16:23.983Z,28.95
2022-08-14T17:19:00.528Z,28.87
2022-08-14T17:21:32.356Z,28.82
2022-08-14T17:24:58.415Z,28.79
2022-08-14T17:26:59.802Z,28.62
2022-08-14T17:29:44.761Z,28.53
2022-08-14T17:32:29.450Z,28.42
2022-08-14T17:35:10.542Z,28.32
2022-08-14T17:37:45.266Z,28.24
2022-08-14T17:40:19.870Z,28.14
2022-08-14T17:42:51.423Z,28.10
2022-08-14T17:45:26.786Z,28.02
2022-08-14T17:47:59.519Z,27.85
2022-08-14T17:51:00.374Z,27.80
2022-08-14T17:53:30.609Z,27.73
2022-08-14T17:56:01.718Z,27.68
2022-08-14T17:58:38.600Z,27.58
2022-08-14T18:01:13.669Z,27.53
2022-08-14T18:03:50.420Z,27.44
2022-08-14T18:06:39.399Z,27.29
2022-08-14T18:09:24.947Z,27.19
2022-08-14T18:12:01.386Z,27.14
2022-08-14T18:14:48.828Z,27.05
2022-08-14T18:17:23.145Z,27.01
2022-08-14T18:19:52.382Z,26.95
2022-08-14T18:22:32.059Z,26.81
2022-08-14T18:25:02.390Z,26.76
2022-08-14T18:27:43.621Z,26.73
2022-08-14T18:30:33.591Z,26.66
2022-08-14T18:33:22.374Z,26.54
2022-08-14T18:35:59.795Z,26.43
2022-08-14T18:38:45.769Z,26.32
2022-08-14T18:41:38.075Z,26.21
2022-08-14T18:44:10.065Z,26.15
2022-08-14T18:47:15.040Z,26.10
2022-08-14T18:49:57.368Z,26.03
2022-08-14T18:52:34.661Z,25.98
2022-08-14T18:55:22.548Z,25.86
2022-08-14T18:57:58.929Z,25.72
2022-08-14T19:00:33.319Z,25.63
2022-08-14T19:03:05.586Z,25.62
2022-08-14T19:05:49.322Z,25.63
2022-08-14T19:08:22.089Z,25.58
2022-08-14T19:10:59.429Z,25.46
2022-08-14T19:13:48.613Z,25.34
2022-08-14T19:16:33.290Z,25.24
2022-08-14T19:19:06.757Z,25.16
2022-08-14T19:21:41.065Z,25.09
2022-08-14T19:24:30.261Z,24.96
2022-08-14T19:27:23.721Z,24.82
2022-08-14T19:30:10.632Z,24.79
2022-08-14T19:32:50.579Z,24.81
2022-08-14T19:35:24.443Z,24.78
2022-08-14T19:37:57.257Z,24.69
2022-08-14T19:40:41.962Z,24.64
2022-08-14T19:43:22.710Z,24.62
2022-08-14T19:46:39.346Z,24.52
2022-08-14T19:48:58.275Z,24.46
2022-08-14T19:51:32.872Z,24.41
2022-08-14T19:54:13.436Z,24.34
2022-08-14T19:56:47.118Z,24.28
2022-08-14T19:59:19.728Z,24.21
2022-08-14T20:01:52.503Z,24.19
2022-08-14T20:04:47.735Z,24.08
2022-08-14T20:07:59.115Z,23.96
2022-08-14T20:11:10.434Z,23.89
2022-08-14T20:13:32.592Z,23.88
2022-08-14T20:16:12.033Z,23.92
2022-08-14T20:18:49.030Z,23.93
2022-08-14T20:21:19.917Z,23.85
2022-08-14T20:23:49.914Z,23.78
2022-08-14T20:26:31.441Z,23.70
2022-08-14T20:29:04.991Z,23.65
2022-08-14T20:31:36.572Z,23.57
2022-08-14T20:34:18.612Z,23.48
2022-08-14T20:37:01.878Z,23.41
2022-08-14T20:39:34.413Z,23.34
2022-08-14T20:42:29.571Z,23.27
2022-08-14T20:45:23.787Z,23.23
2022-08-14T20:47:56.506Z,23.19
2022-08-14T20:50:28.766Z,23.17
2022-08-14T20:53:06.078Z,23.10
2022-08-14T20:55:49.052Z,23.01
2022-08-14T20:58:44.297Z,22.94
2022-08-14T21:01:18.552Z,22.92
2022-08-14T21:03:57.361Z,22.88
2022-08-14T21:07:23.183Z,22.87
2022-08-14T21:10:03.128Z,22.83
2022-08-14T21:12:33.935Z,22.76
2022-08-14T21:15:03.883Z,22.72
2022-08-14T21:17:32.590Z,22.68
2022-08-14T21:20:25.610Z,22.65
2022-08-14T21:23:00.397Z,22.64
2022-08-14T21:25:31.842Z,22.68
2022-08-14T21:28:03.302Z,22.62
2022-08-14T21:30:51.498Z,22.63
2022-08-14T21:33:21.913Z,22.59
2022-08-14T21:35:54.938Z,22.34
2022-08-14T21:38:33.948Z,22.53
2022-08-14T21:41:42.753Z,22.43
2022-08-14T21:44:18.331Z,22.43
2022-08-14T21:46:56.335Z,22.38
2022-08-14T21:49:34.386Z,22.31
2022-08-14T21:52:51.383Z,22.24
2022-08-14T21:55:09.638Z,22.17
2022-08-14T21:58:46.010Z,22.06
2022-08-14T22:00:39.433Z,21.98
2022-08-14T22:03:23.625Z,21.93
2022-08-14T22:05:56.195Z,21.91
2022-08-14T22:08:26.751Z,21.96
2022-08-14T22:10:56.344Z,21.94
2022-08-14T22:13:27.042Z,21.93
2022-08-14T22:16:02.107Z,21.92
2022-08-14T22:18:30.311Z,21.86
2022-08-14T22:20:58.738Z,21.78
2022-08-14T22:23:26.561Z,21.77
2022-08-14T22:25:55.507Z,21.74
2022-08-14T22:28:32.745Z,21.69
2022-08-14T22:31:18.307Z,21.68
2022-08-14T22:33:57.753Z,21.58
2022-08-14T22:36:45.390Z,21.57
2022-08-14T22:39:19.575Z,21.50
2022-08-14T22:42:20.935Z,21.41
2022-08-14T22:44:56.539Z,21.34
2022-08-14T22:47:25.516Z,21.29
2022-08-14T22:50:31.316Z,21.25
2022-08-14T22:52:49.177Z,21.26
2022-08-14T22:55:17.526Z,21.22
2022-08-14T22:57:44.923Z,21.08
2022-08-14T23:00:25.155Z,21.02
2022-08-14T23:02:58.020Z,20.97
2022-08-14T23:05:39.193Z,20.97
2022-08-14T23:08:56.405Z,20.99
2022-08-14T23:11:03.105Z,20.94
2022-08-14T23:13:32.293Z,20.92
2022-08-14T23:16:00.432Z,20.92
2022-08-14T23:18:29.941Z,20.97
2022-08-14T23:20:58.253Z,20.98
2022-08-14T23:23:26.013Z,20.93
2022-08-14T23:26:00.312Z,20.90
2022-08-14T23:28:58.128Z,20.89
2022-08-14T23:31:35.745Z,20.87
2022-08-14T23:34:10.018Z,20.80
2022-08-14T23:36:53.316Z,20.81
2022-08-14T23:39:29.503Z,20.77
2022-08-14T23:42:02.606Z,20.74
2022-08-14T23:44:35.256Z,20.68
2022-08-14T23:47:10.649Z,20.64
2022-08-14T23:49:59.928Z,20.57
2022-08-14T23:52:55.589Z,20.45
2022-08-14T23:55:16.060Z,20.37
2022-08-14T23:57:58.035Z,20.32
